createdAt,value
2022-08-03T00:00:08.733Z,45.2460
2022-08-03T00:00:19.785Z,45.1910
2022-08-03T00:00:30.855Z,45.1670
2022-08-03T00:00:41.911Z,45.1550
2022-08-03T00:00:52.971Z,45.1670
2022-08-03T00:01:04.027Z,45.1730
2022-08-03T00:01:15.086Z,45.1610
2022-08-03T00:01:26.147Z,45.1730
2022-08-03T00:01:37.195Z,45.1850
2022-08-03T00:01:48.260Z,45.1850
2022-08-03T00:01:59.325Z,45.2030
2022-08-03T00:02:10.567Z,45.2270
2022-08-03T00:02:21.637Z,45.2510
2022-08-03T00:02:32.742Z,45.2570
2022-08-03T00:02:43.879Z,45.2390
2022-08-03T00:02:54.967Z,45.2390
2022-08-03T00:03:06.135Z,45.2220
2022-08-03T00:03:17.236Z,45.2160
2022-08-03T00:03:28.345Z,45.1970
2022-08-03T00:03:39.424Z,45.2070
2022-08-03T00:03:50.464Z,45.1890
2022-08-03T00:04:01.517Z,45.1890
2022-08-03T00:04:12.885Z,45.1950
2022-08-03T00:04:34.096Z,45.2120
2022-08-03T00:04:40.930Z,45.4600
2022-08-03T00:04:51.984Z,45.3800
2022-08-03T00:05:03.051Z,45.3060
2022-08-03T00:05:14.122Z,45.3000
2022-08-03T00:05:25.188Z,45.2700
2022-08-03T00:05:36.233Z,45.2640
2022-08-03T00:06:03.736Z,45.2520
2022-08-03T00:06:05.208Z,45.4790
2022-08-03T00:06:16.603Z,45.4530
2022-08-03T00:06:27.676Z,45.3540
2022-08-03T00:06:38.750Z,45.3360
2022-08-03T00:06:49.823Z,45.3240
2022-08-03T00:07:00.883Z,45.3120
2022-08-03T00:07:11.982Z,45.2820
2022-08-03T00:07:23.047Z,45.2820
2022-08-03T00:07:34.103Z,45.2820
2022-08-03T00:07:45.295Z,45.2640
2022-08-03T00:07:56.370Z,45.2620
2022-08-03T00:08:07.419Z,45.2740
2022-08-03T00:08:19.039Z,45.2620
2022-08-03T00:08:30.665Z,45.3530
2022-08-03T00:08:42.865Z,45.3630
2022-08-03T00:08:53.924Z,45.3140
2022-08-03T00:09:04.984Z,45.2820
2022-08-03T00:09:16.179Z,45.3020
2022-08-03T00:09:27.232Z,45.2900
2022-08-03T00:09:44.213Z,45.5400
2022-08-03T00:09:55.272Z,45.4710
2022-08-03T00:10:06.333Z,45.4270
2022-08-03T00:10:17.729Z,45.3920
2022-08-03T00:10:28.795Z,45.4100
2022-08-03T00:10:39.843Z,45.4100
2022-08-03T00:10:50.912Z,45.4160
2022-08-03T00:11:01.986Z,45.4270
2022-08-03T00:11:13.042Z,45.4260
2022-08-03T00:11:24.122Z,45.4370
2022-08-03T00:11:35.192Z,45.4490
2022-08-03T00:11:46.266Z,45.4490
2022-08-03T00:11:57.333Z,45.4610
2022-08-03T00:12:08.875Z,45.4670
2022-08-03T00:12:20.161Z,45.4810
2022-08-03T00:12:31.210Z,45.4650
2022-08-03T00:12:42.282Z,45.4590
2022-08-03T00:12:53.338Z,45.4340
2022-08-03T00:13:04.388Z,45.4160
2022-08-03T00:13:15.443Z,45.4090
2022-08-03T00:13:26.522Z,45.4210
2022-08-03T00:13:37.600Z,45.4470
2022-08-03T00:13:48.682Z,45.4340
2022-08-03T00:13:59.775Z,45.4530
2022-08-03T00:14:10.828Z,45.4650
2022-08-03T00:14:22.049Z,45.4710
2022-08-03T00:14:33.124Z,45.4770
2022-08-03T00:14:44.218Z,45.4890
2022-08-03T00:14:55.260Z,45.5050
2022-08-03T00:15:08.322Z,45.5050
2022-08-03T00:15:23.304Z,45.7560
2022-08-03T00:15:34.372Z,45.6740
2022-08-03T00:15:45.458Z,45.6020
2022-08-03T00:15:56.520Z,45.5910
2022-08-03T00:16:07.586Z,45.5960
2022-08-03T00:16:18.643Z,45.5960
2022-08-03T00:16:30.362Z,45.6580
2022-08-03T00:16:41.568Z,45.6420
2022-08-03T00:16:52.607Z,45.6420
2022-08-03T00:17:03.667Z,45.6560
2022-08-03T00:17:14.722Z,45.6740
2022-08-03T00:17:25.823Z,45.6580
2022-08-03T00:17:52.831Z,45.6700
2022-08-03T00:17:54.157Z,45.9230
2022-08-03T00:18:05.232Z,45.8430
2022-08-03T00:18:16.271Z,45.7690
2022-08-03T00:18:27.336Z,45.7560
2022-08-03T00:18:38.402Z,45.7560
2022-08-03T00:18:49.471Z,45.7560
2022-08-03T00:19:00.974Z,45.7530
2022-08-03T00:19:12.292Z,45.7600
2022-08-03T00:19:23.351Z,45.7380
2022-08-03T00:19:34.404Z,45.7080
2022-08-03T00:19:45.609Z,45.7140
2022-08-03T00:19:56.668Z,45.7260
2022-08-03T00:20:07.716Z,45.7320
2022-08-03T00:20:18.850Z,45.7320
2022-08-03T00:20:29.924Z,45.7200
2022-08-03T00:20:40.987Z,45.7200
2022-08-03T00:20:52.066Z,45.7140
2022-08-03T00:21:03.116Z,45.7200
2022-08-03T00:21:14.275Z,45.7140
2022-08-03T00:21:26.828Z,45.8110
2022-08-03T00:21:37.896Z,45.7710
2022-08-03T00:21:49.214Z,45.7530
2022-08-03T00:22:00.283Z,45.7890
2022-08-03T00:22:11.341Z,45.7810
2022-08-03T00:22:22.402Z,45.7930
2022-08-03T00:22:35.103Z,45.8790
2022-08-03T00:22:46.371Z,45.8610
2022-08-03T00:22:57.445Z,45.8490
2022-08-03T00:23:08.507Z,45.8510
2022-08-03T00:23:19.589Z,45.8570
2022-08-03T00:23:50.873Z,45.8510
2022-08-03T00:23:52.282Z,46.1040
2022-08-03T00:24:04.595Z,46.2300
2022-08-03T00:24:15.666Z,46.0990
2022-08-03T00:24:26.745Z,45.9810
2022-08-03T00:24:37.828Z,45.9610
2022-08-03T00:24:49.162Z,45.9410
2022-08-03T00:25:00.227Z,45.9370
2022-08-03T00:25:11.257Z,45.9130
2022-08-03T00:25:22.495Z,45.9130
2022-08-03T00:25:33.535Z,45.9190
2022-08-03T00:25:44.626Z,45.9070
2022-08-03T00:25:55.686Z,45.9070
2022-08-03T00:26:06.759Z,45.9190
2022-08-03T00:26:17.823Z,45.9130
2022-08-03T00:26:28.870Z,45.9010
2022-08-03T00:26:39.944Z,45.9010
2022-08-03T00:26:51.145Z,45.8970
2022-08-03T00:27:02.217Z,45.8850
2022-08-03T00:27:16.597Z,45.8730
2022-08-03T00:27:27.921Z,46.0440
2022-08-03T00:27:44.895Z,46.1520
2022-08-03T00:27:56.004Z,46.0420
2022-08-03T00:28:07.013Z,45.9620
2022-08-03T00:28:19.776Z,46.0260
2022-08-03T00:28:30.843Z,45.9620
2022-08-03T00:28:41.878Z,45.9560
2022-08-03T00:28:53.064Z,45.9500
2022-08-03T00:29:04.133Z,45.9680
2022-08-03T00:29:15.206Z,45.9560
2022-08-03T00:29:26.263Z,45.9500
2022-08-03T00:29:59.912Z,46.1770
2022-08-03T00:30:00.094Z,45.9410
2022-08-03T00:30:11.529Z,46.2690
2022-08-03T00:30:22.606Z,46.1150
2022-08-03T00:30:37.970Z,46.2080
2022-08-03T00:30:49.043Z,46.0360
2022-08-03T00:31:01.382Z,46.0720
2022-08-03T00:31:13.718Z,45.9920
2022-08-03T00:31:40.243Z,46.0660
2022-08-03T00:31:59.209Z,46.2800
2022-08-03T00:31:59.396Z,46.3660
2022-08-03T00:32:11.561Z,46.2520
2022-08-03T00:32:24.150Z,46.1450
2022-08-03T00:32:35.999Z,46.1700
2022-08-03T00:32:47.119Z,46.0770
2022-08-03T00:32:58.720Z,46.0650
2022-08-03T00:33:10.656Z,46.0860
2022-08-03T00:33:21.681Z,46.0480
2022-08-03T00:33:58.398Z,46.2630
2022-08-03T00:33:59.117Z,46.0480
2022-08-03T00:34:07.208Z,46.3600
2022-08-03T00:34:18.292Z,46.2120
2022-08-03T00:34:54.318Z,46.3360
2022-08-03T00:34:58.714Z,46.4000
2022-08-03T00:35:12.344Z,46.4320
2022-08-03T00:35:50.078Z,46.4740
2022-08-03T00:35:50.301Z,46.4680
2022-08-03T00:36:00.052Z,46.4620
2022-08-03T00:36:11.112Z,46.2900
2022-08-03T00:36:22.172Z,46.1970
2022-08-03T00:36:33.249Z,46.1510
2022-08-03T00:36:44.320Z,46.1330
2022-08-03T00:36:55.384Z,46.1220
2022-08-03T00:37:06.452Z,46.1330
2022-08-03T00:37:17.727Z,46.1510
2022-08-03T00:37:41.390Z,46.1820
2022-08-03T00:37:45.739Z,46.4060
2022-08-03T00:37:56.895Z,46.3020
2022-08-03T00:38:07.946Z,46.2220
2022-08-03T00:38:19.150Z,46.1780
2022-08-03T00:38:30.210Z,46.1770
2022-08-03T00:38:41.290Z,46.1700
2022-08-03T00:38:52.632Z,46.1770
2022-08-03T00:39:03.700Z,46.2070
2022-08-03T00:39:14.770Z,46.1770
2022-08-03T00:39:25.846Z,46.1770
2022-08-03T00:39:36.899Z,46.1820
2022-08-03T00:39:48.118Z,46.1900
2022-08-03T00:39:59.881Z,46.2100
2022-08-03T00:40:11.190Z,46.2520
2022-08-03T00:40:22.410Z,46.2220
2022-08-03T00:40:33.478Z,46.2400
2022-08-03T00:40:44.536Z,46.2340
2022-08-03T00:40:55.612Z,46.2280
2022-08-03T00:41:06.679Z,46.2280
2022-08-03T00:41:17.761Z,46.2120
2022-08-03T00:41:28.841Z,46.1940
2022-08-03T00:41:39.894Z,46.1770
2022-08-03T00:41:50.938Z,46.1520
2022-08-03T00:42:02.009Z,46.1520
2022-08-03T00:42:13.224Z,46.1770
2022-08-03T00:42:24.412Z,46.1900
2022-08-03T00:42:39.928Z,46.4050
2022-08-03T00:42:50.999Z,46.2920
2022-08-03T00:43:02.108Z,46.2440
2022-08-03T00:43:13.189Z,46.2560
2022-08-03T00:43:24.471Z,46.2300
2022-08-03T00:43:35.537Z,46.2560
2022-08-03T00:43:46.586Z,46.2260
2022-08-03T00:43:57.812Z,46.2020
2022-08-03T00:44:08.867Z,46.2020
2022-08-03T00:44:19.926Z,46.1900
2022-08-03T00:44:31.022Z,46.1990
2022-08-03T00:44:42.232Z,46.1940
2022-08-03T00:44:54.655Z,46.2530
2022-08-03T00:45:05.705Z,46.2260
2022-08-03T00:45:16.783Z,46.2140
2022-08-03T00:45:28.086Z,46.2080
2022-08-03T00:45:39.146Z,46.2260
2022-08-03T00:45:50.199Z,46.2510
2022-08-03T00:46:02.375Z,46.3360
2022-08-03T00:46:16.456Z,46.3100
2022-08-03T00:46:30.535Z,46.5540
2022-08-03T00:46:41.596Z,46.4800
2022-08-03T00:46:52.644Z,46.4000
2022-08-03T00:47:03.726Z,46.3820
2022-08-03T00:47:15.028Z,46.4000
2022-08-03T00:47:26.090Z,46.4000
2022-08-03T00:47:37.160Z,46.3940
2022-08-03T00:47:48.277Z,46.3880
2022-08-03T00:47:59.368Z,46.4120
2022-08-03T00:48:30.155Z,46.4180
2022-08-03T00:48:33.127Z,46.6480
2022-08-03T00:48:44.716Z,46.7420
2022-08-03T00:48:55.837Z,46.6220
2022-08-03T00:49:06.931Z,46.5260
2022-08-03T00:49:18.139Z,46.5140
2022-08-03T00:49:29.306Z,46.5340
2022-08-03T00:49:41.010Z,46.5200
2022-08-03T00:49:52.272Z,46.5640
2022-08-03T00:50:03.309Z,46.5400
2022-08-03T00:50:14.353Z,46.5260
2022-08-03T00:50:25.411Z,46.5260
2022-08-03T00:50:36.491Z,46.5140
2022-08-03T00:50:47.661Z,46.4960
2022-08-03T00:51:03.412Z,46.7180
2022-08-03T00:51:14.478Z,46.5520
2022-08-03T00:51:25.549Z,46.5180
2022-08-03T00:51:36.600Z,46.5000
2022-08-03T00:51:47.799Z,46.4740
2022-08-03T00:51:58.842Z,46.4560
2022-08-03T00:52:09.917Z,46.4500
2022-08-03T00:52:21.094Z,46.4560
2022-08-03T00:52:32.208Z,46.4620
2022-08-03T00:52:43.277Z,46.4560
2022-08-03T00:52:54.321Z,46.4560
2022-08-03T00:53:05.402Z,46.4440
2022-08-03T00:53:16.499Z,46.4260
2022-08-03T00:53:29.556Z,46.5300
2022-08-03T00:53:40.632Z,46.4680
2022-08-03T00:53:51.835Z,46.4500
2022-08-03T00:54:02.907Z,46.4260
2022-08-03T00:54:14.026Z,46.3980
2022-08-03T00:54:25.081Z,46.3860
2022-08-03T00:54:36.703Z,46.4220
2022-08-03T00:54:47.771Z,46.4220
2022-08-03T00:54:58.858Z,46.4460
2022-08-03T00:55:09.931Z,46.4440
2022-08-03T00:55:21.004Z,46.4620
2022-08-03T00:55:32.072Z,46.4380
2022-08-03T00:55:43.902Z,46.5000
2022-08-03T00:55:55.172Z,46.4800
2022-08-03T00:56:06.231Z,46.4860
2022-08-03T00:56:17.350Z,46.4920
2022-08-03T00:56:28.360Z,46.5060
2022-08-03T00:56:39.422Z,46.5240
2022-08-03T00:56:59.739Z,46.7820
2022-08-03T00:57:11.551Z,46.8360
2022-08-03T00:57:22.590Z,46.6440
2022-08-03T00:57:33.664Z,46.5820
2022-08-03T00:57:44.733Z,46.5640
2022-08-03T00:57:56.119Z,46.5940
2022-08-03T00:58:07.184Z,46.5880
2022-08-03T00:58:18.265Z,46.5600
2022-08-03T00:58:29.311Z,46.5480
2022-08-03T00:58:40.403Z,46.5480
2022-08-03T00:58:51.453Z,46.5420
2022-08-03T00:59:02.518Z,46.5600
2022-08-03T00:59:13.576Z,46.5760
2022-08-03T00:59:25.740Z,46.6380
2022-08-03T00:59:36.790Z,46.6200
2022-08-03T00:59:47.852Z,46.6000
2022-08-03T00:59:58.933Z,46.5980
2022-08-03T01:00:09.970Z,46.5980
2022-08-03T01:00:21.101Z,46.6100
2022-08-03T01:00:33.971Z,46.7060
2022-08-03T01:00:45.370Z,46.6380
2022-08-03T01:00:56.513Z,46.6380
2022-08-03T01:01:07.607Z,46.6000
2022-08-03T01:01:18.761Z,46.6000
2022-08-03T01:01:32.182Z,46.5940
2022-08-03T01:01:43.836Z,46.7480
2022-08-03T01:01:54.899Z,46.6660
2022-08-03T01:02:05.951Z,46.6480
2022-08-03T01:02:17.483Z,46.6220
2022-08-03T01:02:29.017Z,46.6900
2022-08-03T01:02:40.094Z,46.6420
2022-08-03T01:02:51.138Z,46.6080
2022-08-03T01:03:02.186Z,46.6000
2022-08-03T01:03:13.252Z,46.5980
2022-08-03T01:03:24.352Z,46.5920
2022-08-03T01:03:35.406Z,46.6100
2022-08-03T01:03:46.582Z,46.5920
2022-08-03T01:03:57.622Z,46.6140
2022-08-03T01:04:08.673Z,46.6320
2022-08-03T01:04:19.869Z,46.6440
2022-08-03T01:04:31.082Z,46.6660
2022-08-03T01:04:42.142Z,46.6720
2022-08-03T01:04:53.205Z,46.6720
2022-08-03T01:05:04.259Z,46.6600
2022-08-03T01:05:15.323Z,46.6540
2022-08-03T01:05:26.397Z,46.6560
2022-08-03T01:05:37.467Z,46.6440
2022-08-03T01:05:48.669Z,46.6140
2022-08-03T01:05:59.732Z,46.6040
2022-08-03T01:06:10.809Z,46.6040
2022-08-03T01:06:22.189Z,46.6040
2022-08-03T01:06:33.259Z,46.6480
2022-08-03T01:06:44.321Z,46.6220
2022-08-03T01:06:55.381Z,46.6380
2022-08-03T01:07:06.453Z,46.6500
2022-08-03T01:07:22.205Z,46.8980
2022-08-03T01:07:33.263Z,46.7520
2022-08-03T01:07:44.312Z,46.6900
2022-08-03T01:07:55.384Z,46.6900
2022-08-03T01:08:06.461Z,46.6840
2022-08-03T01:08:17.502Z,46.7080
2022-08-03T01:08:28.619Z,46.7020
2022-08-03T01:08:39.661Z,46.7020
2022-08-03T01:08:50.872Z,46.6960
2022-08-03T01:09:01.935Z,46.6960
2022-08-03T01:09:13.014Z,46.6900
2022-08-03T01:09:24.207Z,46.6840
2022-08-03T01:09:35.265Z,46.6870
2022-08-03T01:09:46.329Z,46.6740
2022-08-03T01:09:57.377Z,46.6840
2022-08-03T01:10:08.443Z,46.7020
2022-08-03T01:10:19.513Z,46.7020
2022-08-03T01:10:31.537Z,46.6960
2022-08-03T01:10:42.816Z,46.7460
2022-08-03T01:10:54.051Z,46.7160
2022-08-03T01:11:05.093Z,46.7160
2022-08-03T01:11:16.158Z,46.7020
2022-08-03T01:11:27.401Z,46.7160
2022-08-03T01:12:00.767Z,46.9780
2022-08-03T01:12:09.254Z,46.7220
2022-08-03T01:12:12.351Z,47.0880
2022-08-03T01:12:23.421Z,46.9460
2022-08-03T01:12:34.498Z,46.8420
2022-08-03T01:12:45.551Z,46.7910
2022-08-03T01:12:56.806Z,46.8130
2022-08-03T01:13:07.869Z,46.8260
2022-08-03T01:14:01.314Z,47.1950
2022-08-03T01:14:02.335Z,47.1320
2022-08-03T01:14:03.422Z,47.0460
2022-08-03T01:14:18.554Z,47.2070
2022-08-03T01:14:30.526Z,47.1770
2022-08-03T01:14:41.579Z,46.9850
2022-08-03T01:14:52.656Z,46.9040
2022-08-03T01:15:03.728Z,46.8540
2022-08-03T01:15:14.780Z,46.8100
2022-08-03T01:15:25.829Z,46.8200
2022-08-03T01:15:36.909Z,46.8320
2022-08-03T01:15:48.009Z,46.8500
2022-08-03T01:15:59.281Z,46.8420
2022-08-03T01:16:10.329Z,46.8660
2022-08-03T01:16:21.389Z,46.8440
2022-08-03T01:16:38.351Z,47.0720
2022-08-03T01:16:49.420Z,46.9580
2022-08-03T01:17:00.772Z,46.8660
2022-08-03T01:17:11.842Z,46.8440
2022-08-03T01:17:22.905Z,46.8220
2022-08-03T01:17:33.979Z,46.8080
2022-08-03T01:17:45.034Z,46.8200
2022-08-03T01:17:58.495Z,46.9580
2022-08-03T01:18:09.584Z,46.8700
2022-08-03T01:18:20.681Z,46.8500
2022-08-03T01:18:31.879Z,46.8480
2022-08-03T01:18:42.969Z,46.8660
2022-08-03T01:18:54.032Z,46.8480
2022-08-03T01:19:05.179Z,46.8600
2022-08-03T01:19:16.258Z,46.8780
2022-08-03T01:19:27.336Z,46.8660
2022-08-03T01:19:38.420Z,46.8660
2022-08-03T01:19:49.577Z,46.8720
2022-08-03T01:20:01.948Z,46.9100
2022-08-03T01:20:13.337Z,46.9370
2022-08-03T01:20:24.410Z,46.8960
2022-08-03T01:20:35.608Z,46.8660
2022-08-03T01:20:46.671Z,46.8380
2022-08-03T01:20:58.041Z,46.8260
2022-08-03T01:21:09.169Z,46.8230
2022-08-03T01:21:22.010Z,46.8900
2022-08-03T01:21:33.074Z,46.8440
2022-08-03T01:21:44.174Z,46.8160
2022-08-03T01:21:57.934Z,46.9520
2022-08-03T01:22:09.899Z,46.8880
2022-08-03T01:22:21.064Z,46.8140
2022-08-03T01:22:32.126Z,46.8040
2022-08-03T01:22:43.179Z,46.8040
2022-08-03T01:22:54.375Z,46.8140
2022-08-03T01:23:05.583Z,46.8320
2022-08-03T01:23:16.636Z,46.8440
2022-08-03T01:23:28.796Z,46.8500
2022-08-03T01:23:40.226Z,46.9460
2022-08-03T01:23:51.335Z,46.9090
2022-08-03T01:24:02.389Z,46.8960
2022-08-03T01:24:13.466Z,46.8780
2022-08-03T01:24:24.673Z,46.8960
2022-08-03T01:24:35.736Z,46.9090
2022-08-03T01:24:47.303Z,46.9160
2022-08-03T01:24:58.369Z,46.9090
2022-08-03T01:25:09.435Z,46.9340
2022-08-03T01:25:20.514Z,46.9340
2022-08-03T01:25:31.567Z,46.9220
2022-08-03T01:25:42.615Z,46.9280
2022-08-03T01:25:54.292Z,46.9460
2022-08-03T01:26:05.934Z,47.0020
2022-08-03T01:26:16.995Z,46.9640
2022-08-03T01:26:28.267Z,46.9520
2022-08-03T01:26:39.321Z,46.9460
2022-08-03T01:26:50.391Z,46.9220
2022-08-03T01:27:02.606Z,46.9040
2022-08-03T01:27:14.491Z,47.0320
2022-08-03T01:27:25.559Z,46.9780
2022-08-03T01:27:36.601Z,46.9580
2022-08-03T01:27:47.677Z,46.9580
2022-08-03T01:27:58.741Z,46.9520
2022-08-03T01:28:09.802Z,46.9340
2022-08-03T01:28:22.462Z,47.0200
2022-08-03T01:28:33.542Z,46.9700
2022-08-03T01:28:44.613Z,46.9460
2022-08-03T01:28:55.717Z,46.9520
2022-08-03T01:29:06.782Z,46.9520
2022-08-03T01:29:17.861Z,46.9520
2022-08-03T01:29:29.626Z,46.9780
2022-08-03T01:29:40.692Z,46.9840
2022-08-03T01:29:51.736Z,46.9700
2022-08-03T01:30:02.806Z,46.9520
2022-08-03T01:30:13.898Z,46.9520
2022-08-03T01:30:24.967Z,46.9220
2022-08-03T01:30:38.802Z,47.0700
2022-08-03T01:30:49.867Z,46.9780
2022-08-03T01:31:01.096Z,46.9520
2022-08-03T01:31:12.163Z,46.9580
2022-08-03T01:31:23.217Z,46.9400
2022-08-03T01:31:34.308Z,46.9160
2022-08-03T01:32:53.636Z,47.3060
2022-08-03T01:32:58.669Z,47.1380
2022-08-03T01:32:58.963Z,47.2360
2022-08-03T01:33:01.878Z,47.3340
2022-08-03T01:33:02.966Z,47.2940
2022-08-03T01:33:13.435Z,47.2970
2022-08-03T01:33:24.505Z,47.1030
2022-08-03T01:33:35.715Z,47.0470
2022-08-03T01:33:46.785Z,47.0290
2022-08-03T01:33:57.893Z,47.0030
2022-08-03T01:34:09.307Z,46.9850
2022-08-03T01:34:25.884Z,47.1950
2022-08-03T01:34:37.092Z,47.1030
2022-08-03T01:34:48.134Z,47.0470
2022-08-03T01:34:59.207Z,47.0090
2022-08-03T01:35:10.273Z,47.0030
2022-08-03T01:35:21.619Z,47.0090
2022-08-03T01:35:38.236Z,47.1090
2022-08-03T01:35:49.957Z,47.2880
2022-08-03T01:36:01.022Z,47.1210
2022-08-03T01:36:12.067Z,47.0770
2022-08-03T01:36:23.335Z,47.0410
2022-08-03T01:36:34.519Z,47.0350
2022-08-03T01:36:45.590Z,47.0090
2022-08-03T01:36:56.660Z,46.9910
2022-08-03T01:37:07.856Z,46.9900
2022-08-03T01:37:18.920Z,46.9900
2022-08-03T01:37:29.995Z,46.9640
2022-08-03T01:37:41.053Z,46.9960
2022-08-03T01:37:52.302Z,46.9900
2022-08-03T01:38:03.357Z,46.9910
2022-08-03T01:38:14.408Z,47.0230
2022-08-03T01:38:25.569Z,47.0290
2022-08-03T01:38:36.764Z,47.0410
2022-08-03T01:38:47.841Z,47.0410
2022-08-03T01:38:58.939Z,47.0290
2022-08-03T01:39:10.004Z,47.0290
2022-08-03T01:39:21.080Z,47.0290
2022-08-03T01:39:32.138Z,47.0350
2022-08-03T01:39:43.232Z,47.0350
2022-08-03T01:39:54.437Z,47.0350
2022-08-03T01:40:07.048Z,47.1030
2022-08-03T01:40:18.117Z,47.0470
2022-08-03T01:40:29.203Z,47.0350
2022-08-03T01:40:40.265Z,46.9970
2022-08-03T01:40:51.338Z,47.0090
2022-08-03T01:41:02.406Z,47.0090
2022-08-03T01:41:14.886Z,47.0970
2022-08-03T01:41:26.143Z,47.0650
2022-08-03T01:41:37.194Z,47.0710
2022-08-03T01:41:48.246Z,47.0590
2022-08-03T01:41:59.426Z,47.0590
2022-08-03T01:42:10.599Z,47.0590
2022-08-03T01:42:21.627Z,47.0470
2022-08-03T01:42:32.679Z,47.0530
2022-08-03T01:42:43.759Z,47.0590
2022-08-03T01:42:54.859Z,47.0590
2022-08-03T01:43:05.931Z,47.0590
2022-08-03T01:44:01.237Z,47.4180
2022-08-03T01:44:26.193Z,47.0710
2022-08-03T01:44:27.759Z,47.3100
2022-08-03T01:44:29.713Z,47.4680
2022-08-03T01:44:29.870Z,47.4740
2022-08-03T01:44:41.830Z,47.4920
2022-08-03T01:44:52.891Z,47.3250
2022-08-03T01:45:03.979Z,47.2190
2022-08-03T01:45:15.038Z,47.2010
2022-08-03T01:45:26.109Z,47.1770
2022-08-03T01:45:37.187Z,47.1770
2022-08-03T01:45:48.250Z,47.1710
2022-08-03T01:45:59.440Z,47.1630
2022-08-03T01:46:10.502Z,47.1630
2022-08-03T01:46:21.551Z,47.1710
2022-08-03T01:46:32.732Z,47.1770
2022-08-03T01:46:48.754Z,47.1710
2022-08-03T01:47:00.873Z,47.3940
2022-08-03T01:47:11.928Z,47.3120
2022-08-03T01:47:23.016Z,47.2190
2022-08-03T01:47:34.225Z,47.1890
2022-08-03T01:47:45.291Z,47.1570
2022-08-03T01:47:56.342Z,47.1570
2022-08-03T01:48:07.409Z,47.1390
2022-08-03T01:48:18.480Z,47.1630
2022-08-03T01:48:29.531Z,47.1570
2022-08-03T01:48:40.600Z,47.1630
2022-08-03T01:48:51.794Z,47.1770
2022-08-03T01:49:09.003Z,47.1890
2022-08-03T01:49:19.942Z,47.4240
2022-08-03T01:49:31.055Z,47.3050
2022-08-03T01:49:42.223Z,47.2510
2022-08-03T01:49:53.239Z,47.2250
2022-08-03T01:50:04.311Z,47.2130
2022-08-03T01:50:15.376Z,47.1950
2022-08-03T01:50:29.519Z,47.3740
2022-08-03T01:50:40.576Z,47.2810
2022-08-03T01:50:51.738Z,47.2510
2022-08-03T01:51:02.809Z,47.2430
2022-08-03T01:51:13.867Z,47.2130
2022-08-03T01:51:24.910Z,47.2130
2022-08-03T01:51:58.496Z,47.4300
2022-08-03T01:52:04.505Z,47.5160
2022-08-03T01:52:16.017Z,47.5500
2022-08-03T01:52:27.229Z,47.4260
2022-08-03T01:52:38.590Z,47.3030
2022-08-03T01:52:49.636Z,47.2850
2022-08-03T01:53:00.694Z,47.2430
2022-08-03T01:53:11.744Z,47.2190
2022-08-03T01:53:22.897Z,47.2070
2022-08-03T01:53:33.962Z,47.1950
2022-08-03T01:53:45.015Z,47.1950
2022-08-03T01:53:56.212Z,47.1950
2022-08-03T01:54:07.282Z,47.1890
2022-08-03T01:54:18.362Z,47.1830
2022-08-03T01:54:29.457Z,47.1710
2022-08-03T01:54:40.536Z,47.1770
2022-08-03T01:54:51.594Z,47.1770
2022-08-03T01:55:02.657Z,47.1830
2022-08-03T01:55:13.722Z,47.1630
2022-08-03T01:55:24.922Z,47.1570
2022-08-03T01:55:35.969Z,47.1510
2022-08-03T01:55:47.037Z,47.1510
2022-08-03T01:55:58.262Z,47.1450
2022-08-03T01:56:09.316Z,47.1510
2022-08-03T01:56:20.396Z,47.1450
2022-08-03T01:56:31.477Z,47.1450
2022-08-03T01:56:42.528Z,47.1210
2022-08-03T01:56:53.620Z,47.1050
2022-08-03T01:57:04.686Z,47.1050
2022-08-03T01:57:15.772Z,47.0930
2022-08-03T01:57:26.838Z,47.1210
2022-08-03T01:58:04.678Z,47.3740
2022-08-03T01:58:05.819Z,47.1210
2022-08-03T01:58:11.835Z,47.4800
2022-08-03T01:58:22.917Z,47.3210
2022-08-03T01:58:33.985Z,47.2310
2022-08-03T01:58:45.038Z,47.2010
2022-08-03T01:58:56.108Z,47.1890
2022-08-03T01:59:07.183Z,47.1890
2022-08-03T01:59:18.252Z,47.1950
2022-08-03T01:59:29.466Z,47.2070
2022-08-03T01:59:40.546Z,47.2070
2022-08-03T01:59:51.590Z,47.2010
2022-08-03T02:00:02.648Z,47.1890
2022-08-03T02:00:13.718Z,47.1950
2022-08-03T02:00:24.786Z,47.1830
2022-08-03T02:00:35.841Z,47.1890
2022-08-03T02:00:46.992Z,47.1830
2022-08-03T02:00:58.153Z,47.1830
2022-08-03T02:01:09.330Z,47.2070
2022-08-03T02:01:20.466Z,47.1950
2022-08-03T02:02:19.546Z,47.5600
2022-08-03T02:02:27.535Z,47.2130
2022-08-03T02:02:29.803Z,47.4460
2022-08-03T02:02:33.312Z,47.5780
2022-08-03T02:02:39.766Z,47.6200
2022-08-03T02:02:51.068Z,47.4650
2022-08-03T02:03:02.388Z,47.3550
2022-08-03T02:03:13.447Z,47.3210
2022-08-03T02:03:24.520Z,47.2810
2022-08-03T02:03:35.677Z,47.2630
2022-08-03T02:03:59.608Z,47.2290
2022-08-03T02:04:03.702Z,47.4640
2022-08-03T02:04:14.767Z,47.3370
2022-08-03T02:04:25.810Z,47.2630
2022-08-03T02:04:36.997Z,47.2350
2022-08-03T02:04:48.080Z,47.2170
2022-08-03T02:04:59.151Z,47.1910
2022-08-03T02:05:10.638Z,47.1850
2022-08-03T02:05:22.440Z,47.2650
2022-08-03T02:05:33.511Z,47.2230
2022-08-03T02:05:44.587Z,47.1890
2022-08-03T02:06:11.701Z,47.1770
2022-08-03T02:06:59.763Z,47.5380
2022-08-03T02:07:01.077Z,47.4060
2022-08-03T02:07:01.615Z,47.5080
2022-08-03T02:07:03.625Z,47.5480
2022-08-03T02:07:14.688Z,47.3850
2022-08-03T02:07:26.130Z,47.2910
2022-08-03T02:07:37.322Z,47.2690
2022-08-03T02:07:48.386Z,47.2590
2022-08-03T02:07:59.449Z,47.2290
2022-08-03T02:08:10.523Z,47.2230
2022-08-03T02:08:21.588Z,47.2410
2022-08-03T02:08:32.649Z,47.2230
2022-08-03T02:08:43.698Z,47.2410
2022-08-03T02:08:54.762Z,47.2230
2022-08-03T02:09:05.831Z,47.2030
2022-08-03T02:09:16.898Z,47.2030
2022-08-03T02:09:28.069Z,47.1970
2022-08-03T02:09:39.273Z,47.1910
2022-08-03T02:09:50.355Z,47.1910
2022-08-03T02:10:01.413Z,47.2170
2022-08-03T02:10:12.476Z,47.2170
2022-08-03T02:10:34.962Z,47.2110
2022-08-03T02:10:40.508Z,47.4420
2022-08-03T02:10:51.575Z,47.3450
2022-08-03T02:11:02.645Z,47.2710
2022-08-03T02:11:13.727Z,47.2430
2022-08-03T02:11:24.854Z,47.2370
2022-08-03T02:11:35.908Z,47.2030
2022-08-03T02:11:46.974Z,47.2110
2022-08-03T02:11:58.158Z,47.1970
2022-08-03T02:12:09.264Z,47.2030
2022-08-03T02:12:20.305Z,47.2110
2022-08-03T02:12:31.442Z,47.2030
2022-08-03T02:12:43.416Z,47.1910
2022-08-03T02:12:55.937Z,47.3150
2022-08-03T02:13:07.015Z,47.2290
2022-08-03T02:13:18.084Z,47.2170
2022-08-03T02:13:29.292Z,47.1970
2022-08-03T02:13:40.363Z,47.1910
2022-08-03T02:13:51.413Z,47.1670
2022-08-03T02:14:02.604Z,47.1630
2022-08-03T02:14:13.674Z,47.1330
2022-08-03T02:14:24.746Z,47.1330
2022-08-03T02:14:35.808Z,47.1330
2022-08-03T02:14:46.874Z,47.1210
2022-08-03T02:15:00.123Z,47.1210
2022-08-03T02:15:12.045Z,47.2690
2022-08-03T02:15:25.787Z,47.3030
2022-08-03T02:15:36.865Z,47.1970
2022-08-03T02:15:47.914Z,47.1790
2022-08-03T02:15:58.995Z,47.1550
2022-08-03T02:16:10.068Z,47.1610
2022-08-03T02:16:21.115Z,47.1510
2022-08-03T02:16:32.334Z,47.1630
2022-08-03T02:16:43.406Z,47.1690
2022-08-03T02:16:54.481Z,47.1610
2022-08-03T02:17:05.811Z,47.1490
2022-08-03T02:17:16.855Z,47.1490
2022-08-03T02:17:38.555Z,47.1370
2022-08-03T02:17:44.864Z,47.3920
2022-08-03T02:17:55.895Z,47.2910
2022-08-03T02:18:07.100Z,47.1970
2022-08-03T02:18:18.159Z,47.1890
2022-08-03T02:18:29.221Z,47.1690
2022-08-03T02:18:40.295Z,47.1490
2022-08-03T02:18:51.371Z,47.1430
2022-08-03T02:19:02.420Z,47.1290
2022-08-03T02:19:13.481Z,47.1150
2022-08-03T02:19:24.530Z,47.1270
2022-08-03T02:19:35.978Z,47.1150
2022-08-03T02:19:46.996Z,47.1450
2022-08-03T02:19:58.077Z,47.1430
2022-08-03T02:20:09.124Z,47.1430
2022-08-03T02:20:20.148Z,47.1290
2022-08-03T02:20:31.218Z,47.1430
2022-08-03T02:20:42.291Z,47.1550
2022-08-03T02:20:53.368Z,47.1670
2022-08-03T02:21:05.349Z,47.1570
2022-08-03T02:21:56.271Z,47.5710
2022-08-03T02:21:56.829Z,47.5370
2022-08-03T02:21:57.372Z,47.4340
2022-08-03T02:22:12.410Z,47.5990
2022-08-03T02:22:23.462Z,47.4430